createdAt,value
2022-12-28T00:03:05.492Z,100.00
2022-12-28T00:08:09.192Z,100.00
2022-12-28T00:13:12.810Z,100.00
2022-12-28T00:18:17.768Z,100.00
2022-12-28T00:23:21.279Z,100.00
2022-12-28T00:28:24.854Z,100.00
2022-12-28T00:33:29.858Z,100.00
2022-12-28T00:38:33.558Z,100.00
2022-12-28T00:43:37.734Z,100.00
2022-12-28T00:48:42.766Z,100.00
2022-12-28T00:53:46.597Z,100.00
2022-12-28T00:58:50.722Z,100.00
2022-12-28T01:03:56.968Z,100.00
2022-12-28T01:09:01.937Z,100.00
2022-12-28T01:14:05.536Z,100.00
2022-12-28T01:19:16.036Z,100.00
2022-12-28T01:24:19.717Z,100.00
2022-12-28T01:29:23.264Z,100.00
2022-12-28T01:34:30.835Z,100.00
2022-12-28T01:39:34.403Z,100.00
2022-12-28T01:44:48.275Z,100.00
2022-12-28T01:50:12.854Z,100.00
2022-12-28T01:55:20.764Z,100.00
2022-12-28T02:00:24.557Z,100.00
2022-12-28T02:05:33.970Z,100.00
2022-12-28T02:10:43.652Z,100.00
2022-12-28T02:15:49.119Z,100.00
2022-12-28T02:21:23.422Z,100.00
2022-12-28T02:26:54.958Z,100.00
2022-12-28T02:32:10.241Z,100.00
2022-12-28T02:37:20.648Z,100.00
2022-12-28T02:42:26.722Z,100.00
2022-12-28T02:47:49.296Z,100.00
2022-12-28T02:53:24.530Z,100.00
2022-12-28T02:58:58.359Z,100.00
2022-12-28T03:04:12.185Z,100.00
2022-12-28T03:09:22.413Z,100.00
2022-12-28T03:14:31.939Z,100.00
2022-12-28T03:20:00.983Z,100.00
2022-12-28T03:25:27.477Z,100.00
2022-12-28T03:30:51.184Z,100.00
2022-12-28T03:36:04.894Z,100.00
2022-12-28T03:41:12.226Z,100.00
2022-12-28T03:46:23.110Z,100.00
2022-12-28T03:51:31.946Z,100.00
2022-12-28T03:56:47.491Z,100.00
2022-12-28T04:01:51.819Z,100.00
2022-12-28T04:06:56.945Z,100.00
2022-12-28T04:12:00.723Z,100.00
2022-12-28T04:17:24.124Z,100.00
2022-12-28T04:22:29.209Z,100.00
2022-12-28T04:27:35.096Z,100.00
2022-12-28T04:32:46.132Z,100.00
2022-12-28T04:37:52.146Z,100.00
2022-12-28T04:42:55.658Z,100.00
2022-12-28T04:47:59.981Z,100.00
2022-12-28T04:53:04.999Z,100.00
2022-12-28T04:58:08.620Z,100.00
2022-12-28T05:03:12.377Z,100.00
2022-12-28T05:08:17.760Z,100.00
2022-12-28T05:13:21.341Z,100.00
2022-12-28T05:18:24.903Z,100.00
2022-12-28T05:23:31.321Z,100.00
2022-12-28T05:28:34.983Z,100.00
2022-12-28T05:33:39.810Z,100.00
2022-12-28T05:38:45.224Z,100.00
2022-12-28T05:43:49.097Z,100.00
2022-12-28T05:48:52.964Z,100.00
2022-12-28T05:53:59.959Z,100.00
2022-12-28T05:59:05.865Z,100.00
2022-12-28T06:04:15.399Z,100.00
2022-12-28T06:09:20.692Z,100.00
2022-12-28T06:14:24.349Z,100.00
2022-12-28T06:19:28.096Z,100.00
2022-12-28T06:24:33.426Z,100.00
2022-12-28T06:29:37.412Z,100.00
2022-12-28T06:34:40.987Z,100.00
2022-12-28T06:39:46.052Z,100.00
2022-12-28T06:44:49.742Z,100.00
2022-12-28T06:49:53.546Z,100.00
2022-12-28T06:54:58.721Z,100.00
2022-12-28T07:00:02.477Z,100.00
2022-12-28T07:05:06.660Z,100.00
2022-12-28T07:10:11.944Z,100.00
2022-12-28T07:15:15.819Z,100.00
2022-12-28T07:20:19.532Z,100.00
2022-12-28T07:25:24.725Z,100.00
2022-12-28T07:30:28.649Z,100.00
2022-12-28T07:35:32.321Z,100.00
2022-12-28T07:40:37.412Z,100.00
2022-12-28T07:45:41.232Z,100.00
2022-12-28T07:50:45.033Z,100.00
2022-12-28T07:55:58.568Z,100.00
2022-12-28T08:01:06.947Z,100.00
2022-12-28T08:06:12.234Z,100.00
2022-12-28T08:11:19.307Z,100.00
2022-12-28T08:16:25.092Z,100.00
2022-12-28T08:21:31.186Z,100.00
2022-12-28T08:26:38.164Z,100.00
2022-12-28T08:31:43.697Z,100.00
2022-12-28T08:36:47.628Z,100.00
2022-12-28T08:41:52.693Z,100.00
2022-12-28T08:46:58.163Z,100.00
2022-12-28T08:52:01.924Z,100.00
2022-12-28T08:57:06.973Z,100.00
2022-12-28T09:02:13.925Z,100.00
2022-12-28T09:07:17.617Z,100.00
2022-12-28T09:12:22.554Z,100.00
2022-12-28T09:17:26.359Z,100.00
2022-12-28T09:22:31.918Z,100.00
2022-12-28T09:27:36.821Z,100.00
2022-12-28T09:32:40.298Z,100.00
2022-12-28T09:37:43.863Z,100.00
2022-12-28T09:42:48.801Z,100.00
2022-12-28T09:47:57.111Z,100.00
2022-12-28T09:53:15.295Z,100.00
2022-12-28T09:58:21.269Z,100.00
2022-12-28T10:03:27.228Z,100.00
2022-12-28T10:08:31.564Z,100.00
2022-12-28T10:13:56.160Z,100.00
2022-12-28T10:19:00.518Z,100.00
2022-12-28T10:29:34.804Z,100.00
2022-12-28T10:34:38.724Z,100.00
2022-12-28T10:39:50.729Z,100.00
2022-12-28T10:45:02.764Z,100.00
2022-12-28T10:50:36.047Z,100.00
2022-12-28T10:55:35.612Z,100.00
2022-12-28T11:00:41.013Z,100.00
2022-12-28T11:05:44.820Z,100.00
2022-12-28T11:10:57.893Z,100.00
2022-12-28T11:16:07.987Z,100.00
2022-12-28T11:21:16.871Z,100.00
2022-12-28T11:26:22.101Z,100.00
2022-12-28T11:31:31.724Z,100.00
2022-12-28T11:36:40.846Z,100.00
2022-12-28T11:42:02.876Z,100.00
2022-12-28T11:47:33.060Z,100.00
2022-12-28T11:52:47.185Z,100.00
2022-12-28T11:57:50.948Z,100.00
2022-12-28T12:02:57.575Z,100.00
2022-12-28T12:08:01.291Z,100.00
2022-12-28T12:13:38.463Z,100.00
2022-12-28T12:18:49.721Z,100.00
2022-12-28T12:23:57.681Z,100.00
2022-12-28T12:29:06.050Z,100.00
2022-12-28T12:34:19.687Z,100.00
2022-12-28T12:39:48.546Z,100.00
2022-12-28T12:44:58.530Z,100.00
2022-12-28T12:50:25.657Z,100.00
2022-12-28T12:55:41.648Z,100.00
2022-12-28T13:00:59.769Z,100.00
2022-12-28T13:06:06.979Z,100.00
2022-12-28T13:11:12.618Z,100.00
2022-12-28T13:16:18.532Z,100.00
2022-12-28T13:21:25.585Z,100.00
2022-12-28T13:26:30.863Z,100.00
2022-12-28T13:31:36.608Z,100.00
2022-12-28T13:36:51.327Z,100.00
2022-12-28T13:41:56.424Z,100.00
2022-12-28T13:47:06.143Z,100.00
2022-12-28T13:52:17.399Z,100.00
2022-12-28T14:02:48.893Z,100.00
2022-12-28T14:07:56.295Z,100.00
2022-12-28T14:13:00.897Z,100.00
2022-12-28T14:18:06.734Z,100.00
2022-12-28T14:23:26.705Z,100.00
2022-12-28T14:28:36.053Z,100.00
2022-12-28T14:33:50.581Z,100.00
2022-12-28T14:39:02.868Z,100.00
2022-12-28T14:49:42.680Z,100.00
2022-12-28T14:54:49.027Z,100.00
2022-12-28T14:59:58.052Z,100.00
2022-12-28T15:00:25.174Z,100.00
2022-12-28T15:05:02.049Z,100.00
2022-12-28T15:10:09.022Z,100.00
2022-12-28T15:15:13.247Z,100.00
2022-12-28T15:20:17.642Z,100.00
2022-12-28T15:25:24.190Z,100.00
2022-12-28T15:30:29.279Z,100.00
2022-12-28T15:35:34.167Z,100.00
2022-12-28T15:40:42.003Z,100.00
2022-12-28T15:45:53.628Z,100.00
2022-12-28T15:50:57.545Z,100.00
2022-12-28T15:56:02.973Z,100.00
2022-12-28T16:01:07.466Z,100.00
2022-12-28T16:06:11.588Z,100.00
2022-12-28T16:11:19.044Z,100.00
2022-12-28T16:16:23.806Z,100.00
2022-12-28T16:21:28.531Z,100.00
2022-12-28T16:26:33.766Z,100.00
2022-12-28T16:31:39.314Z,100.00
2022-12-28T16:36:43.858Z,100.00
2022-12-28T16:41:49.059Z,100.00
2022-12-28T16:46:54.337Z,100.00
2022-12-28T16:51:59.951Z,100.00
2022-12-28T16:57:05.258Z,100.00
2022-12-28T17:02:13.635Z,100.00
2022-12-28T17:07:17.839Z,100.00
2022-12-28T17:12:23.073Z,100.00
2022-12-28T17:17:27.418Z,100.00
2022-12-28T17:22:33.433Z,100.00
2022-12-28T17:27:39.202Z,100.00
2022-12-28T17:32:43.534Z,100.00
2022-12-28T17:37:47.519Z,100.00
2022-12-28T17:42:53.053Z,100.00
2022-12-28T17:47:57.067Z,100.00
2022-12-28T17:53:01.496Z,100.00
2022-12-28T17:58:06.733Z,100.00
2022-12-28T18:03:10.836Z,100.00
2022-12-28T18:08:14.923Z,100.00
2022-12-28T18:13:21.622Z,100.00
2022-12-28T18:18:26.124Z,100.00
2022-12-28T18:23:30.476Z,100.00
2022-12-28T18:28:36.909Z,100.00
2022-12-28T18:33:43.369Z,100.00
2022-12-28T18:38:48.981Z,100.00
2022-12-28T18:43:57.079Z,100.00
2022-12-28T18:49:01.530Z,100.00
2022-12-28T18:54:06.342Z,100.00
2022-12-28T18:59:11.881Z,100.00
2022-12-28T19:04:16.945Z,100.00
2022-12-28T19:09:21.230Z,100.00
2022-12-28T19:14:29.442Z,100.00
2022-12-28T19:19:33.590Z,100.00
2022-12-28T19:24:37.662Z,100.00
2022-12-28T19:29:44.402Z,100.00
2022-12-28T19:34:48.370Z,100.00
2022-12-28T19:39:57.637Z,100.00
2022-12-28T19:45:09.578Z,100.00
2022-12-28T19:50:14.858Z,100.00
2022-12-28T19:55:19.127Z,100.00
2022-12-28T20:00:24.701Z,100.00
2022-12-28T20:05:29.840Z,100.00
2022-12-28T20:10:33.895Z,100.00
2022-12-28T20:15:42.300Z,100.00
2022-12-28T20:21:17.928Z,100.00
2022-12-28T20:26:10.003Z,100.00
2022-12-28T20:31:16.347Z,100.00
2022-12-28T20:36:21.713Z,100.00
2022-12-28T20:41:43.746Z,100.00
2022-12-28T20:46:49.088Z,100.00
2022-12-28T20:51:55.293Z,100.00
2022-12-28T20:56:59.083Z,100.00
2022-12-28T21:02:04.190Z,100.00
2022-12-28T21:07:07.859Z,100.00
2022-12-28T21:12:11.532Z,100.00
2022-12-28T21:17:17.783Z,100.00
2022-12-28T21:22:21.275Z,98.82
2022-12-28T21:27:24.883Z,100.00
2022-12-28T21:32:29.781Z,100.00
2022-12-28T21:37:36.272Z,100.00
2022-12-28T21:42:40.231Z,100.00
2022-12-28T21:47:45.382Z,96.21
2022-12-28T21:52:48.899Z,99.31
2022-12-28T21:57:55.297Z,99.33
2022-12-28T22:03:17.458Z,98.72
2022-12-28T22:08:38.747Z,97.51
2022-12-28T22:13:42.331Z,95.50
2022-12-28T22:19:02.209Z,95.83
2022-12-28T22:24:07.044Z,99.37
2022-12-28T22:29:10.951Z,99.24
2022-12-28T22:34:15.943Z,98.74
2022-12-28T22:39:19.577Z,99.70
2022-12-28T22:44:23.129Z,100.00
2022-12-28T22:49:28.256Z,100.00
2022-12-28T22:54:31.789Z,100.00
2022-12-28T22:59:35.618Z,100.00
2022-12-28T23:04:41.328Z,100.00
2022-12-28T23:09:44.975Z,100.00
2022-12-28T23:15:05.943Z,100.00
2022-12-28T23:20:30.839Z,100.00
2022-12-28T23:25:51.897Z,100.00
2022-12-28T23:30:57.197Z,100.00
2022-12-28T23:36:04.479Z,100.00
2022-12-28T23:41:25.885Z,100.00
2022-12-28T23:46:29.937Z,100.00
2022-12-28T23:51:35.600Z,100.00
2022-12-28T23:56:40.278Z,100.00
